Time;durP1;ratioP1;P1;durP2;ratioP2;P2;SDS_P1;SDS_P2;PMS_P1;PMS_P2;Temp;Humidity;BMP_temperature;BMP_pressure;BME280_temperature;BME280_humidity;BME280_pressure;Samples;Min_cycle;Max_cycle;Signal;HPM_P1;HPM_P2
2020/12/03 00:01:18;;;;;;;53.73;21.30;;;;;;;-3.52;79.28;98785.80;3592735;79;21024;-78
2020/12/03 00:06:29;;;;;;;50.40;19.47;;;;;;;-3.54;79.19;98766.87;3708626;78;21014;-78
2020/12/03 00:11:35;;;;;;;48.27;21.37;;;;;;;-3.61;79.01;98750.30;3676931;80;21026;-77
2020/12/03 00:16:41;;;;;;;49.33;21.50;;;;;;;-3.72;78.81;98743.84;3688339;78;20972;-79
2020/12/03 00:21:48;;;;;;;44.50;18.73;;;;;;;-3.84;78.86;98731.80;3706599;78;20999;-77
2020/12/03 00:26:51;;;;;;;59.27;24.43;;;;;;;-3.91;79.13;98728.86;3806141;76;21018;-77
2020/12/03 00:31:53;;;;;;;56.30;23.10;;;;;;;-3.96;79.23;98711.94;3769259;78;21034;-77
2020/12/03 00:36:55;;;;;;;57.47;24.57;;;;;;;-4.00;79.41;98704.17;3801296;77;21392;-77
2020/12/03 00:41:57;;;;;;;48.90;21.30;;;;;;;-3.94;79.72;98709.12;3714598;79;21039;-78
2020/12/03 00:46:59;;;;;;;49.83;20.63;;;;;;;-3.91;79.56;98700.08;3803150;76;20999;-78
2020/12/03 00:52:01;;;;;;;59.30;24.87;;;;;;;-3.95;79.58;98704.37;3780481;76;21578;-79
2020/12/03 00:57:07;;;;;;;58.67;24.13;;;;;;;-3.93;79.72;98703.38;3763536;78;21042;-79
2020/12/03 01:02:13;;;;;;;66.33;26.50;;;;;;;-3.89;79.69;98698.05;3768645;78;21011;-78
2020/12/03 01:07:16;;;;;;;44.58;19.05;;;;;;;-3.82;79.84;98693.64;3774954;78;37506;-79
2020/12/03 01:12:18;;;;;;;40.17;17.73;;;;;;;-3.77;79.74;98677.37;3811436;76;21045;-79
2020/12/03 01:17:20;;;;;;;50.03;21.47;;;;;;;-3.78;79.65;98696.17;3676663;80;21002;-79
2020/12/03 01:22:24;;;;;;;44.03;20.00;;;;;;;-3.72;79.78;98698.02;3798721;77;20954;-78
2020/12/03 01:27:27;;;;;;;38.20;16.83;;;;;;;-3.73;79.63;98672.05;3780757;78;21016;-79
2020/12/03 01:32:29;;;;;;;45.53;20.43;;;;;;;-3.68;79.62;98668.31;3694994;80;21044;-78
2020/12/03 01:37:31;;;;;;;56.30;24.57;;;;;;;-3.70;79.41;98665.89;3781197;78;21044;-79
2020/12/03 01:42:38;;;;;;;58.17;24.57;;;;;;;-3.77;79.27;98653.30;3838199;76;21486;-77
2020/12/03 01:47:41;;;;;;;39.83;18.50;;;;;;;-3.81;79.33;98641.09;3757790;78;20992;-77
2020/12/03 01:52:43;;;;;;;35.00;16.00;;;;;;;-3.79;79.28;98639.61;3676458;79;21021;-77
2020/12/03 01:57:55;;;;;;;42.17;17.40;;;;;;;-3.85;79.05;98629.41;3781909;78;20999;-77
2020/12/03 02:02:57;;;;;;;46.47;20.27;;;;;;;-3.92;79.00;98626.48;3769880;78;21057;-77
2020/12/03 02:07:59;;;;;;;41.90;19.77;;;;;;;-3.98;79.33;98621.53;3768887;78;21002;-77
2020/12/03 02:13:01;;;;;;;53.10;22.63;;;;;;;-3.98;79.30;98618.92;3773677;77;21035;-77
2020/12/03 02:18:06;;;;;;;48.53;22.63;;;;;;;-4.04;79.35;98606.61;3770952;78;21032;-77
2020/12/03 02:23:14;;;;;;;42.47;19.60;;;;;;;-4.01;79.49;98599.18;3778897;78;21446;-77
2020/12/03 02:28:16;;;;;;;47.33;21.10;;;;;;;-4.01;79.47;98603.62;3775306;77;20971;-78
2020/12/03 02:33:18;;;;;;;56.87;23.50;;;;;;;-4.03;79.38;98605.13;3769516;78;21006;-77
2020/12/03 02:38:21;;;;;;;42.10;19.40;;;;;;;-3.98;79.52;98617.09;3779350;78;21027;-77
2020/12/03 02:43:25;;;;;;;45.37;19.77;;;;;;;-3.97;79.33;98610.87;3776275;78;21031;-77
2020/12/03 02:48:27;;;;;;;56.57;24.33;;;;;;;-3.96;79.37;98616.89;3778823;78;21052;-79
2020/12/03 02:53:29;;;;;;;44.87;18.27;;;;;;;-3.93;79.45;98601.30;3770904;77;21006;-77
2020/12/03 02:58:31;;;;;;;39.10;17.10;;;;;;;-3.91;79.34;98591.46;3769399;78;20979;-77
2020/12/03 03:03:33;;;;;;;54.67;23.37;;;;;;;-3.92;79.34;98595.08;3779828;78;20985;-78
2020/12/03 03:08:34;;;;;;;60.73;24.20;;;;;;;-3.98;79.14;98585.70;3794400;77;20989;-78
2020/12/03 03:13:36;;;;;;;46.13;22.20;;;;;;;-4.01;79.46;98583.48;3746312;79;21015;-79
2020/12/03 03:18:38;;;;;;;56.70;25.00;;;;;;;-3.95;79.42;98585.80;3770029;78;21460;-78
2020/12/03 03:23:40;;;;;;;42.20;19.33;;;;;;;-3.97;79.30;98571.61;3781344;78;21004;-78
2020/12/03 03:28:43;;;;;;;51.33;22.40;;;;;;;-3.93;79.41;98572.52;3815096;77;21008;-80
2020/12/03 03:33:46;;;;;;;49.73;19.53;;;;;;;-3.94;79.28;98570.41;3740066;79;20972;-78
2020/12/03 03:38:48;;;;;;;53.37;23.77;;;;;;;-3.95;79.32;98558.33;3760804;77;21047;-78
2020/12/03 03:43:52;;;;;;;44.33;19.57;;;;;;;-3.97;79.42;98531.56;3710010;79;21523;-78
2020/12/03 03:48:54;;;;;;;45.50;19.63;;;;;;;-4.00;79.37;98514.45;3771965;78;21391;-78
2020/12/03 03:53:56;;;;;;;42.53;16.63;;;;;;;-4.07;79.38;98497.12;3767348;77;21007;-79
2020/12/03 03:58:58;;;;;;;44.47;19.43;;;;;;;-4.11;79.47;98483.64;3773914;76;21431;-78
2020/12/03 04:04:00;;;;;;;41.10;18.83;;;;;;;-4.19;79.46;98483.33;3810310;76;21448;-78
2020/12/03 04:09:03;;;;;;;47.87;20.13;;;;;;;-4.26;79.50;98489.05;3694690;80;21060;-79
2020/12/03 04:14:05;;;;;;;40.87;18.77;;;;;;;-4.30;79.43;98478.17;3791463;78;21029;-78
2020/12/03 04:19:07;;;;;;;48.33;21.50;;;;;;;-4.35;79.50;98485.83;3769869;78;21018;-78
2020/12/03 04:24:09;;;;;;;38.53;17.60;;;;;;;-4.35;79.73;98490.23;3829411;77;20964;-77
2020/12/03 04:29:14;;;;;;;45.93;20.83;;;;;;;-4.27;79.79;98478.80;3707658;79;21031;-77
2020/12/03 04:34:16;;;;;;;38.97;16.60;;;;;;;-4.23;79.75;98472.95;3768659;78;21034;-78
2020/12/03 04:39:18;;;;;;;47.67;19.93;;;;;;;-4.17;79.67;98464.81;3796723;77;21048;-78
2020/12/03 04:44:26;;;;;;;44.40;18.53;;;;;;;-4.16;79.62;98470.35;3768768;78;20974;-77
2020/12/03 04:49:48;;;;;;;49.37;21.00;;;;;;;-4.14;79.61;98464.40;3768716;78;21438;-78
2020/12/03 04:55:02;;;;;;;37.93;16.40;;;;;;;-4.10;79.71;98458.28;3756343;78;21011;-78
2020/12/03 05:00:13;;;;;;;40.60;19.67;;;;;;;-4.08;79.68;98466.23;3695537;80;21037;-77
2020/12/03 05:05:36;;;;;;;44.93;19.10;;;;;;;-3.98;79.68;98456.67;3784267;78;20984;-78
2020/12/03 05:10:45;;;;;;;44.50;17.47;;;;;;;-3.91;79.66;98456.68;3798583;77;21033;-77
2020/12/03 05:15:58;;;;;;;54.77;25.37;;;;;;;-3.84;79.37;98453.03;3769029;76;21458;-78
2020/12/03 05:21:02;;;;;;;54.03;24.13;;;;;;;-3.78;79.34;98457.96;3811056;77;20996;-78
2020/12/03 05:26:22;;;;;;;51.33;22.57;;;;;;;-3.72;79.26;98445.87;3753992;79;21016;-78
2020/12/03 05:31:28;;;;;;;;;;;;;;;-3.63;79.21;98431.05;3840764;77;20988;-79
2020/12/03 05:36:35;;;;;;;45.03;21.50;;;;;;;-3.55;79.16;98428.73;3797885;77;20187;-79
2020/12/03 05:41:47;;;;;;;48.00;23.37;;;;;;;-3.46;79.26;98422.25;3794091;77;20960;-78
2020/12/03 05:46:51;;;;;;;41.87;19.23;;;;;;;-3.41;78.92;98426.89;3766154;77;20947;-78
2020/12/03 05:52:17;;;;;;;50.07;22.67;;;;;;;-3.37;78.89;98414.16;3771286;77;21028;-78
2020/12/03 05:57:32;;;;;;;53.20;21.97;;;;;;;-3.22;79.00;98404.75;3896937;76;22680;-77
2020/12/03 06:02:56;;;;;;;49.43;21.17;;;;;;;-3.23;78.85;98392.17;3701151;80;21015;-78
2020/12/03 06:08:27;;;;;;;42.27;20.13;;;;;;;-3.20;78.77;98389.12;3675633;80;20925;-78
2020/12/03 06:14:18;;;;;;;48.07;21.57;;;;;;;-3.18;78.62;98365.34;3695550;79;20935;-77
2020/12/03 06:19:52;;;;;;;47.20;20.83;;;;;;;-3.15;78.61;98364.91;3679588;80;20980;-77
2020/12/03 06:25:19;;;;;;;48.03;21.67;;;;;;;-3.11;78.66;98381.31;3685085;79;21032;-78
2020/12/03 06:30:27;;;;;;;44.50;21.47;;;;;;;-3.04;78.54;98372.63;3702905;78;21032;-78
2020/12/03 06:35:53;;;;;;;51.43;23.90;;;;;;;-3.06;78.27;98364.98;3678618;79;21014;-79
2020/12/03 06:41:17;;;;;;;58.67;27.37;;;;;;;-3.06;78.46;98362.36;3684892;79;20960;-79
2020/12/03 06:46:56;;;;;;;58.47;25.77;;;;;;;-3.00;78.53;98364.13;3665187;79;21399;-79
2020/12/03 06:52:26;;;;;;;51.37;23.47;;;;;;;-2.98;78.32;98369.98;3583591;79;21135;-79
2020/12/03 06:58:08;;;;;;;50.27;23.57;;;;;;;-2.99;78.20;98363.13;3587290;81;21039;-78
2020/12/03 07:03:46;;;;;;;53.73;23.30;;;;;;;-3.00;78.28;98347.09;3624475;80;21011;-77
2020/12/03 07:09:11;;;;;;;56.37;24.97;;;;;;;-2.97;78.25;98349.80;3623275;80;21047;-78
2020/12/03 07:14:51;;;;;;;58.33;25.50;;;;;;;-2.97;78.23;98347.97;3612080;80;20988;-77
2020/12/03 07:20:26;;;;;;;59.73;25.57;;;;;;;-2.97;78.23;98354.53;3586296;80;21064;-78
2020/12/03 07:25:28;;;;;;;50.17;22.03;;;;;;;-2.93;78.27;98354.41;3554623;80;20980;-79
2020/12/03 07:30:48;;;;;;;59.33;27.77;;;;;;;-2.91;78.25;98352.88;3630628;80;21026;-79
2020/12/03 07:36:22;;;;;;;49.70;22.47;;;;;;;-2.86;78.17;98351.75;3626357;80;21042;-78
2020/12/03 07:41:27;;;;;;;60.07;27.40;;;;;;;-2.73;78.36;98355.30;3611130;80;21234;-77
2020/12/03 07:46:34;;;;;;;73.37;29.87;;;;;;;-2.64;78.16;98361.39;3598103;81;21047;-79
2020/12/03 07:51:37;;;;;;;58.53;26.30;;;;;;;-2.51;78.28;98371.50;3622844;80;21051;-76
2020/12/03 07:56:41;;;;;;;59.57;27.33;;;;;;;-2.37;78.05;98361.19;3671885;80;21494;-77
2020/12/03 08:01:42;;;;;;;61.33;27.37;;;;;;;-2.27;77.92;98366.77;3714973;78;21519;-79
2020/12/03 08:07:15;;;;;;;65.97;28.93;;;;;;;-2.13;77.96;98360.08;3603522;80;20948;-78
2020/12/03 08:12:22;;;;;;;59.33;25.83;;;;;;;-2.06;77.67;98358.20;3635966;81;21568;-77
2020/12/03 08:17:30;;;;;;;60.20;24.83;;;;;;;-1.99;77.63;98348.95;3600559;80;21032;-76
2020/12/03 08:22:42;;;;;;;65.03;27.77;;;;;;;-1.92;77.57;98343.12;3611711;81;21399;-78
2020/12/03 08:28:00;;;;;;;65.10;28.13;;;;;;;-1.91;77.30;98332.40;3684202;78;21036;-78
2020/12/03 08:33:24;;;;;;;58.03;26.80;;;;;;;-1.88;77.15;98340.88;3692848;78;20932;-78
2020/12/03 08:38:27;;;;;;;56.03;25.83;;;;;;;-1.88;77.22;98348.75;3671855;79;21019;-79
2020/12/03 08:43:33;;;;;;;68.57;29.33;;;;;;;-1.82;77.46;98338.68;3696291;78;20986;-78
2020/12/03 08:48:38;;;;;;;59.13;26.90;;;;;;;-1.79;77.25;98343.00;3678464;78;21035;-79
2020/12/03 08:53:48;;;;;;;66.60;29.77;;;;;;;-1.81;77.11;98341.61;3658888;80;20987;-77
2020/12/03 08:59:11;;;;;;;;;;;;;;;-1.78;77.10;98341.16;3618181;80;21046;-77
2020/12/03 09:04:19;;;;;;;63.63;28.97;;;;;;;-1.71;77.15;98335.32;3627359;81;20167;-77
2020/12/03 09:09:26;;;;;;;65.70;30.43;;;;;;;-1.67;76.95;98342.27;3605175;81;21048;-78
2020/12/03 09:14:31;;;;;;;63.70;29.37;;;;;;;-1.62;77.00;98357.66;3674463;78;22230;-79
2020/12/03 09:19:33;;;;;;;66.20;29.23;;;;;;;-1.56;76.97;98353.34;3672195;79;21040;-78
2020/12/03 09:24:35;;;;;;;73.07;33.30;;;;;;;-1.45;76.93;98348.67;3661630;80;21012;-78
2020/12/03 09:29:39;;;;;;;89.53;38.50;;;;;;;-1.31;77.11;98359.83;3672359;79;20985;-79
2020/12/03 09:34:46;;;;;;;80.77;34.87;;;;;;;-1.13;76.86;98349.01;3661089;80;21093;-78
2020/12/03 09:39:50;;;;;;;64.43;28.27;;;;;;;-0.97;76.71;98344.41;3671932;80;20993;-77
2020/12/03 09:44:57;;;;;;;71.03;30.80;;;;;;;-0.80;76.57;98328.00;3671942;78;21044;-78
2020/12/03 09:50:00;;;;;;;62.80;30.47;;;;;;;-0.77;76.28;98319.66;3680256;78;21020;-79
2020/12/03 09:55:12;;;;;;;84.17;35.33;;;;;;;-0.73;76.21;98314.23;3691082;78;21023;-79
2020/12/03 10:00:31;;;;;;;70.43;33.43;;;;;;;-0.64;76.04;98296.28;3672579;79;21070;-79
2020/12/03 10:06:05;;;;;;;76.30;34.93;;;;;;;-0.53;76.03;98286.31;3639309;80;21064;-79
2020/12/03 10:11:34;;;;;;;76.53;34.07;;;;;;;-0.50;75.87;98281.91;3617337;81;21038;-80
2020/12/03 10:16:40;;;;;;;69.17;33.30;;;;;;;-0.48;75.83;98278.52;3622944;81;21060;-78
2020/12/03 10:21:51;;;;;;;71.57;32.30;;;;;;;-0.53;75.62;98263.95;3655627;79;21040;-79
2020/12/03 10:27:19;;;;;;;71.03;32.10;;;;;;;-0.60;75.57;98262.73;3622473;80;21024;-79
2020/12/03 10:32:23;;;;;;;67.63;31.87;;;;;;;-0.60;75.88;98245.64;3616787;81;21572;-78
2020/12/03 10:37:39;;;;;;;72.93;31.10;;;;;;;-0.52;75.91;98233.95;3635282;81;21044;-79
2020/12/03 10:43:01;;;;;;;94.60;41.23;;;;;;;-0.47;75.79;98240.66;3639361;81;21040;-79
2020/12/03 10:48:21;;;;;;;77.27;35.93;;;;;;;-0.46;75.77;98226.47;3600867;80;21034;-80
2020/12/03 10:53:29;;;;;;;70.40;32.58;;;;;;;-0.36;75.64;98212.21;3634997;79;21070;-79
2020/12/03 10:59:02;;;;;;;72.03;35.00;;;;;;;-0.29;75.58;98211.30;3608716;79;21044;-79
2020/12/03 11:04:07;;;;;;;78.33;36.17;;;;;;;-0.24;75.26;98208.27;3627427;81;21043;-79
2020/12/03 11:09:20;;;;;;;92.02;43.60;;;;;;;-0.17;75.32;98208.11;3620589;81;20998;-79
2020/12/03 11:14:22;;;;;;;95.43;40.00;;;;;;;-0.12;75.42;98214.81;3668724;79;20984;-78
2020/12/03 11:19:26;;;;;;;88.63;38.50;;;;;;;-0.05;75.45;98198.89;3603616;80;21051;-76
2020/12/03 11:24:43;;;;;;;73.90;33.43;;;;;;;-0.02;75.18;98194.47;3657758;80;21062;-77
2020/12/03 11:29:46;;;;;;;68.50;32.80;;;;;;;-0.03;75.03;98178.38;3651847;80;21435;-77
2020/12/03 11:34:49;;;;;;;83.43;38.87;;;;;;;-0.06;75.32;98160.41;3622283;80;21381;-77
2020/12/03 11:40:06;;;;;;;78.30;34.83;;;;;;;-0.08;75.10;98163.28;3639554;80;21034;-77
2020/12/03 11:50:38;;;;;;;76.60;36.33;;;;;;;-0.14;75.00;98140.53;3628828;80;21386;-77
2020/12/03 11:55:42;;;;;;;93.77;43.57;;;;;;;-0.13;75.12;98125.00;3655996;79;21003;-77
2020/12/03 12:00:47;;;;;;;86.50;39.73;;;;;;;-0.13;76.12;98120.27;3671349;78;21052;-76
2020/12/03 12:05:51;;;;;;;85.90;40.67;;;;;;;-0.11;75.54;98100.56;3682445;80;21571;-77
2020/12/03 12:11:17;;;;;;;68.03;32.53;;;;;;;-0.24;75.44;98074.02;3710657;79;21578;-78
2020/12/03 12:16:12;;;;;;;69.93;33.33;;;;;;;-0.35;75.62;98056.41;3698605;78;21000;-78
2020/12/03 12:21:14;;;;;;;74.97;34.17;;;;;;;-0.43;75.82;98059.44;3706863;80;21067;-78
2020/12/03 12:26:17;;;;;;;75.33;35.87;;;;;;;-0.47;76.03;98046.45;3688108;78;20956;-80
2020/12/03 12:31:19;;;;;;;66.27;30.20;;;;;;;-0.52;76.12;98051.91;3651679;80;21386;-78
2020/12/03 12:36:21;;;;;;;73.97;35.67;;;;;;;-0.57;76.16;98032.06;3639295;81;21000;-78
2020/12/03 12:41:23;;;;;;;81.87;38.03;;;;;;;-0.56;76.60;98027.09;3648827;81;21057;-78
2020/12/03 12:46:26;;;;;;;70.03;30.83;;;;;;;-0.50;76.70;98038.51;3631717;81;21012;-77
2020/12/03 12:51:27;;;;;;;67.30;30.17;;;;;;;-0.40;76.76;98049.75;3641814;79;21039;-77
2020/12/03 12:56:30;;;;;;;67.87;32.53;;;;;;;-0.29;76.88;98043.64;3629802;80;21048;-77
2020/12/03 13:01:32;;;;;;;62.80;29.73;;;;;;;-0.19;76.77;98032.48;3639144;81;21579;-77
2020/12/03 13:06:34;;;;;;;73.60;34.03;;;;;;;-0.18;76.46;98025.67;3611904;81;21043;-77
2020/12/03 13:11:37;;;;;;;75.03;34.37;;;;;;;-0.22;76.23;98016.64;3622935;81;21028;-77
2020/12/03 13:16:39;;;;;;;62.43;29.57;;;;;;;-0.20;76.46;98027.75;3622921;81;21020;-77
2020/12/03 13:21:42;;;;;;;74.43;33.77;;;;;;;-0.13;76.42;98007.05;3610045;81;21419;-76
2020/12/03 13:26:44;;;;;;;66.67;30.07;;;;;;;-0.01;76.43;98018.32;3588515;80;21938;-76
2020/12/03 13:31:47;;;;;;;78.10;34.93;;;;;;;0.03;76.20;98012.86;3601126;79;21464;-77
2020/12/03 13:36:50;;;;;;;74.60;34.67;;;;;;;0.07;75.97;98023.70;3633048;80;21044;-75
2020/12/03 13:41:52;;;;;;;61.43;30.30;;;;;;;0.07;76.02;98010.53;3651232;79;21050;-75
2020/12/03 13:46:54;;;;;;;82.83;38.43;;;;;;;0.10;75.96;98010.87;3649420;79;20999;-76
2020/12/03 13:51:56;;;;;;;81.00;38.20;;;;;;;0.12;75.90;98019.31;3659070;79;21044;-76
2020/12/03 13:56:58;;;;;;;68.33;34.00;;;;;;;0.14;75.93;98009.85;3682376;80;21052;-76
2020/12/03 14:02:00;;;;;;;78.17;37.77;;;;;;;0.18;75.82;98005.70;3674814;80;21004;-76
2020/12/03 14:07:02;;;;;;;73.50;33.97;;;;;;;0.18;75.33;98013.61;3659736;81;20968;-76
2020/12/03 14:12:04;;;;;;;80.60;37.87;;;;;;;0.21;75.50;98007.07;3655726;80;21057;-77
2020/12/03 14:17:06;;;;;;;66.60;31.90;;;;;;;0.21;75.27;98016.29;3683068;80;21026;-78
2020/12/03 14:22:11;;;;;;;76.30;36.87;;;;;;;0.20;75.26;97995.75;3665749;79;21040;-76
2020/12/03 14:27:13;;;;;;;81.47;40.27;;;;;;;0.21;75.44;98007.88;3685944;80;21041;-77
2020/12/03 14:32:15;;;;;;;97.83;44.07;;;;;;;0.24;75.26;97995.55;3689502;80;21515;-77
2020/12/03 14:37:18;;;;;;;103.17;47.70;;;;;;;0.24;75.30;97998.18;3676178;79;21056;-78
2020/12/03 14:42:20;;;;;;;105.10;48.63;;;;;;;0.17;75.24;97981.74;3624320;79;20996;-77
2020/12/03 14:47:22;;;;;;;113.33;48.87;;;;;;;0.03;75.45;97983.89;3639821;79;21123;-75
2020/12/03 14:52:24;;;;;;;106.70;48.30;;;;;;;0.02;76.14;97974.39;3669860;80;21041;-76
2020/12/03 14:57:32;;;;;;;111.40;51.53;;;;;;;0.00;76.05;97958.05;3629197;80;21050;-78
2020/12/03 15:02:31;;;;;;;115.20;53.73;;;;;;;0.09;76.72;97962.39;3664894;79;20999;-78
2020/12/03 15:07:34;;;;;;;120.97;53.53;;;;;;;0.14;76.56;97951.41;3665222;79;21046;-77
2020/12/03 15:12:36;;;;;;;124.87;51.27;;;;;;;0.14;76.42;97958.49;3669240;80;21087;-78
2020/12/03 15:17:38;;;;;;;120.17;52.43;;;;;;;0.07;76.21;97954.73;3674766;80;20992;-78
2020/12/03 15:22:40;;;;;;;119.20;55.57;;;;;;;0.12;76.49;97948.20;3672402;80;21455;-79
2020/12/03 15:27:43;;;;;;;133.73;62.23;;;;;;;0.06;76.10;97958.39;3671786;80;21000;-77
2020/12/03 15:32:50;;;;;;;130.70;57.77;;;;;;;-0.02;76.26;97952.98;3661971;80;21028;-77
2020/12/03 15:37:50;;;;;;;131.90;54.80;;;;;;;0.05;76.83;97954.16;3659599;80;20999;-77
2020/12/03 15:42:52;;;;;;;114.13;51.20;;;;;;;0.09;76.66;97951.85;3677631;80;21063;-76
2020/12/03 15:48:29;;;;;;;114.23;48.73;;;;;;;0.08;76.44;97949.72;3673198;80;21005;-77
2020/12/03 15:53:32;;;;;;;106.60;47.27;;;;;;;-0.03;75.90;97938.25;3675581;79;21039;-77
2020/12/03 15:58:38;;;;;;;114.30;49.67;;;;;;;-0.18;76.18;97935.37;3666392;80;21672;-76
2020/12/03 16:03:40;;;;;;;130.50;55.27;;;;;;;-0.27;76.33;97934.95;3684373;80;20972;-78
2020/12/03 16:08:42;;;;;;;105.40;47.40;;;;;;;-0.33;76.40;97926.70;3702512;80;20969;-78
2020/12/03 16:13:44;;;;;;;119.03;53.90;;;;;;;-0.36;76.59;97928.50;3702177;80;21027;-78
2020/12/03 16:18:46;;;;;;;106.20;48.50;;;;;;;-0.36;76.61;97926.66;3702204;80;21424;-79
2020/12/03 16:23:49;;;;;;;117.07;54.67;;;;;;;-0.33;76.64;97916.17;3678029;80;21000;-78
2020/12/03 16:28:51;;;;;;;128.90;59.63;;;;;;;-0.35;76.55;97935.34;3659941;80;20988;-78
2020/12/03 16:33:57;;;;;;;115.90;51.37;;;;;;;-0.36;76.69;97935.86;3637671;81;21067;-78
2020/12/03 16:39:00;;;;;;;110.53;50.97;;;;;;;-0.34;76.73;97915.89;3637721;81;20968;-78
2020/12/03 16:44:02;;;;;;;105.50;46.37;;;;;;;-0.31;76.69;97919.35;3637603;81;21028;-78
2020/12/03 16:49:04;;;;;;;95.13;45.07;;;;;;;-0.29;76.89;97921.77;3637815;81;21043;-78
2020/12/03 16:54:07;;;;;;;117.27;48.37;;;;;;;-0.26;76.88;97915.50;3690736;80;21004;-77
2020/12/03 16:59:14;;;;;;;107.17;50.77;;;;;;;-0.25;76.76;97916.28;3658301;80;21463;-77
2020/12/03 17:04:17;;;;;;;105.87;48.33;;;;;;;-0.26;76.58;97912.86;3638150;81;20939;-78
2020/12/03 17:09:19;;;;;;;109.87;50.63;;;;;;;-0.30;76.53;97903.06;3638039;81;20987;-78
2020/12/03 17:14:21;;;;;;;124.37;55.17;;;;;;;-0.35;76.70;97905.89;3614431;81;21026;-77
2020/12/03 17:19:24;;;;;;;117.73;50.17;;;;;;;-0.33;76.84;97892.48;3638093;81;21423;-78
2020/12/03 17:24:27;;;;;;;109.63;49.13;;;;;;;-0.28;77.04;97874.66;3638015;81;20999;-78
2020/12/03 17:29:31;;;;;;;129.70;54.23;;;;;;;-0.10;77.41;97861.77;3638253;80;21012;-77
2020/12/03 17:34:34;;;;;;;137.30;58.80;;;;;;;0.04;77.19;97864.86;3638971;81;21085;-77
2020/12/03 17:39:38;;;;;;;124.07;53.47;;;;;;;0.18;77.30;97860.05;3638253;81;21050;-77
2020/12/03 17:44:44;;;;;;;107.57;50.53;;;;;;;0.29;77.17;97857.83;3614996;81;21063;-78
2020/12/03 17:49:46;;;;;;;117.90;50.47;;;;;;;0.30;76.57;97861.53;3638353;81;20988;-75
2020/12/03 17:54:52;;;;;;;110.67;48.70;;;;;;;0.19;76.35;97865.07;3699609;80;20945;-78
2020/12/03 17:59:55;;;;;;;115.77;51.03;;;;;;;0.13;76.40;97860.25;3651641;80;21475;-78
2020/12/03 18:04:58;;;;;;;127.67;52.97;;;;;;;0.10;76.50;97866.02;3619059;82;21055;-78
2020/12/03 18:10:00;;;;;;;119.67;50.97;;;;;;;0.11;76.83;97843.91;3618846;81;21039;-78
2020/12/03 18:15:04;;;;;;;107.47;47.43;;;;;;;0.22;77.07;97836.13;3673089;80;21066;-78
2020/12/03 18:20:06;;;;;;;116.73;53.27;;;;;;;0.31;76.99;97849.17;3645560;81;20988;-78
2020/12/03 18:25:08;;;;;;;112.77;51.53;;;;;;;0.40;77.12;97845.05;3606005;82;21007;-78
2020/12/03 18:30:12;;;;;;;80.37;36.93;;;;;;;0.47;76.99;97840.39;3614245;81;21043;-78
2020/12/03 18:35:14;;;;;;;71.40;34.17;;;;;;;0.54;76.82;97839.43;3574714;83;21043;-77
2020/12/03 18:40:17;;;;;;;86.43;39.27;;;;;;;0.59;76.73;97838.15;3640282;81;21031;-77
2020/12/03 18:45:19;;;;;;;85.73;40.47;;;;;;;0.64;76.58;97844.81;3578107;83;21067;-78
2020/12/03 18:50:21;;;;;;;88.00;43.13;;;;;;;0.74;76.65;97842.81;3644330;80;20988;-77
2020/12/03 18:55:24;;;;;;;88.67;41.93;;;;;;;0.79;76.57;97835.75;3636915;81;21048;-77
2020/12/03 19:00:26;;;;;;;79.40;39.97;;;;;;;0.86;76.54;97834.25;3687170;80;21018;-78
2020/12/03 19:05:33;;;;;;;93.73;42.07;;;;;;;0.92;76.26;97812.67;3645553;80;20998;-77
2020/12/03 19:10:38;;;;;;;76.37;36.13;;;;;;;0.93;76.06;97809.00;3639891;81;21023;-77
2020/12/03 19:15:39;;;;;;;88.20;42.07;;;;;;;0.94;75.94;97806.11;3640097;81;21378;-77
2020/12/03 19:20:41;;;;;;;95.70;42.13;;;;;;;0.98;75.88;97807.21;3640138;81;20976;-77
2020/12/03 19:25:45;;;;;;;78.93;35.27;;;;;;;0.96;75.83;97801.91;3605552;80;20996;-78
2020/12/03 19:30:47;;;;;;;72.60;34.10;;;;;;;0.96;75.79;97800.05;3640579;80;21486;-77
2020/12/03 19:35:49;;;;;;;74.40;35.40;;;;;;;1.00;75.76;97793.77;3575052;83;21036;-77
2020/12/03 19:40:52;;;;;;;72.00;33.27;;;;;;;1.04;75.82;97784.31;3640554;81;21027;-78
2020/12/03 19:45:54;;;;;;;99.33;44.33;;;;;;;1.02;75.69;97785.89;3640471;80;21038;-76
2020/12/03 19:50:57;;;;;;;87.70;43.57;;;;;;;1.02;75.63;97768.74;3585823;81;21027;-77
2020/12/03 19:55:59;;;;;;;120.80;53.53;;;;;;;1.06;75.73;97767.70;3674519;80;20992;-76
2020/12/03 20:01:01;;;;;;;113.40;50.83;;;;;;;1.08;75.92;97758.22;3616486;81;20959;-76
2020/12/03 20:06:03;;;;;;;115.03;53.23;;;;;;;1.09;75.86;97776.45;3645717;81;21012;-77
2020/12/03 20:11:05;;;;;;;95.87;45.67;;;;;;;1.12;75.86;97775.13;3607116;82;21507;-78
2020/12/03 20:16:08;;;;;;;116.47;52.40;;;;;;;1.13;75.86;97768.81;3673345;80;20939;-77
2020/12/03 20:21:10;;;;;;;115.17;54.03;;;;;;;1.17;75.96;97770.69;3640029;81;21036;-77
2020/12/03 20:26:15;;;;;;;136.47;64.03;;;;;;;1.21;75.86;97777.59;3635354;80;20949;-77
2020/12/03 20:31:18;;;;;;;129.77;61.43;;;;;;;1.25;75.69;97784.50;3602629;81;21494;-77
2020/12/03 20:36:20;;;;;;;122.67;56.97;;;;;;;1.29;75.86;97782.95;3592606;82;21008;-76
2020/12/03 20:41:23;;;;;;;163.53;67.67;;;;;;;1.30;75.55;97771.33;3592677;82;21452;-76
2020/12/03 20:46:26;;;;;;;143.87;65.37;;;;;;;1.25;75.49;97750.20;3592700;82;21518;-76
2020/12/03 20:51:28;;;;;;;144.67;67.30;;;;;;;1.31;75.41;97772.92;3591676;81;21024;-77
2020/12/03 20:56:31;;;;;;;122.90;56.17;;;;;;;1.38;75.70;97757.66;3635824;81;20997;-77
2020/12/03 21:01:34;;;;;;;99.47;46.70;;;;;;;1.41;75.46;97744.50;3627008;81;21011;-77
2020/12/03 21:06:40;;;;;;;121.93;53.20;;;;;;;1.40;75.45;97727.06;3672982;80;21038;-77
2020/12/03 21:11:42;;;;;;;146.97;63.30;;;;;;;1.36;75.26;97728.89;3579401;82;20955;-77
2020/12/03 21:16:44;;;;;;;134.17;55.50;;;;;;;1.33;75.23;97729.41;3645370;81;21051;-77
2020/12/03 21:21:46;;;;;;;167.70;69.73;;;;;;;1.30;75.46;97723.83;3584361;82;20996;-78
2020/12/03 21:26:48;;;;;;;158.87;68.57;;;;;;;1.27;75.52;97712.47;3644107;78;20999;-77
2020/12/03 21:31:50;;;;;;;123.07;53.93;;;;;;;1.24;75.75;97687.91;3641544;81;21007;-77
2020/12/03 21:36:55;;;;;;;98.17;44.67;;;;;;;1.33;76.02;97679.77;3674680;80;20968;-77
2020/12/03 21:41:57;;;;;;;91.50;42.83;;;;;;;1.31;76.00;97701.14;3705137;80;20965;-77
2020/12/03 21:46:59;;;;;;;77.63;35.93;;;;;;;1.30;76.25;97691.66;3607656;81;22028;-77
2020/12/03 21:52:01;;;;;;;73.33;34.27;;;;;;;1.28;76.18;97696.91;3734137;78;21345;-77
2020/12/03 21:57:03;;;;;;;91.63;42.23;;;;;;;1.21;76.23;97681.84;3779174;78;21012;-78
2020/12/03 22:02:06;;;;;;;93.40;40.83;;;;;;;1.18;76.29;97669.94;3661264;78;21091;-78
2020/12/03 22:07:09;;;;;;;88.77;38.87;;;;;;;1.23;76.52;97658.62;3645528;81;20968;-78
2020/12/03 22:12:15;;;;;;;81.27;36.13;;;;;;;1.28;76.51;97660.76;3645759;81;21048;-78
2020/12/03 22:17:19;;;;;;;74.80;35.07;;;;;;;1.29;76.34;97664.21;3646106;81;21423;-79
2020/12/03 22:22:20;;;;;;;90.53;41.67;;;;;;;1.27;76.37;97662.34;3645410;81;20972;-78
2020/12/03 22:27:22;;;;;;;112.00;48.47;;;;;;;1.27;76.46;97645.97;3653255;80;21008;-78
2020/12/03 22:32:24;;;;;;;105.50;45.83;;;;;;;1.40;76.90;97638.15;3640554;81;21007;-78
2020/12/03 22:37:26;;;;;;;115.83;46.87;;;;;;;1.37;76.55;97634.67;3575428;83;21056;-79
2020/12/03 22:42:28;;;;;;;111.60;42.60;;;;;;;1.33;76.62;97629.13;3641458;81;21024;-78
2020/12/03 22:47:30;;;;;;;102.37;44.83;;;;;;;1.35;76.47;97624.92;3575099;83;21440;-79
2020/12/03 22:52:34;;;;;;;79.83;33.97;;;;;;;1.35;76.58;97611.73;3673786;80;20987;-78
2020/12/03 22:57:37;;;;;;;89.03;38.00;;;;;;;1.32;76.49;97605.64;3705390;80;21023;-78
2020/12/03 23:02:39;;;;;;;109.00;52.30;;;;;;;1.32;76.46;97597.73;3628848;80;20976;-79
2020/12/03 23:07:43;;;;;;;96.30;41.27;;;;;;;1.30;76.51;97597.17;3626984;81;21039;-78
2020/12/03 23:12:45;;;;;;;104.87;45.43;;;;;;;1.21;76.46;97566.54;3628550;81;21468;-78
2020/12/03 23:17:47;;;;;;;96.50;43.37;;;;;;;1.14;76.55;97552.25;3628440;81;21048;-79
2020/12/03 23:22:49;;;;;;;100.53;44.23;;;;;;;1.13;76.75;97545.92;3628694;81;21040;-79
2020/12/03 23:27:51;;;;;;;115.67;53.57;;;;;;;1.14;76.86;97547.52;3643171;78;21078;-79
2020/12/03 23:32:53;;;;;;;88.37;40.90;;;;;;;1.11;76.88;97548.03;3640742;81;21000;-78
2020/12/03 23:37:55;;;;;;;96.73;43.60;;;;;;;1.06;76.90;97519.77;3575530;83;21503;-78